createdAt,value
2022-08-19T00:01:28.978Z,81.90
2022-08-19T00:04:02.380Z,81.90
2022-08-19T00:06:30.153Z,81.90
2022-08-19T00:08:59.208Z,81.90
2022-08-19T00:11:26.915Z,82.00
2022-08-19T00:13:56.341Z,81.90
2022-08-19T00:16:25.267Z,81.90
2022-08-19T00:18:57.269Z,82.00
2022-08-19T00:21:25.609Z,82.10
2022-08-19T00:23:52.406Z,82.10
2022-08-19T00:26:19.123Z,82.10
2022-08-19T00:28:45.919Z,82.10
2022-08-19T00:31:12.627Z,82.10
2022-08-19T00:33:39.450Z,82.10
2022-08-19T00:36:09.609Z,82.10
2022-08-19T00:38:38.321Z,82.20
2022-08-19T00:41:08.479Z,82.20
2022-08-19T00:43:35.386Z,82.20
2022-08-19T00:46:05.505Z,82.20
2022-08-19T00:48:34.536Z,82.20
2022-08-19T00:51:02.201Z,82.20
2022-08-19T00:53:30.568Z,82.20
2022-08-19T00:56:01.083Z,82.20
2022-08-19T00:58:31.782Z,82.20
2022-08-19T01:00:58.791Z,82.10
2022-08-19T01:03:25.605Z,81.90
2022-08-19T01:05:54.951Z,81.90
2022-08-19T01:08:22.214Z,82.00
2022-08-19T01:10:54.101Z,82.80
2022-08-19T01:13:23.799Z,82.10
2022-08-19T01:15:55.871Z,82.10
2022-08-19T01:18:23.592Z,82.10
2022-08-19T01:20:51.719Z,82.10
2022-08-19T01:23:19.484Z,82.20
2022-08-19T01:25:52.191Z,82.20
2022-08-19T01:28:34.244Z,82.30
2022-08-19T01:31:08.430Z,82.30
2022-08-19T01:33:35.332Z,82.20
2022-08-19T01:36:28.660Z,82.30
2022-08-19T01:38:55.809Z,82.30
2022-08-19T01:41:23.621Z,82.40
2022-08-19T01:44:17.094Z,82.40
2022-08-19T01:46:38.985Z,82.50
2022-08-19T01:49:06.976Z,82.50
2022-08-19T01:51:38.523Z,82.50
2022-08-19T01:54:08.027Z,82.50
2022-08-19T01:56:34.853Z,82.50
2022-08-19T01:59:06.489Z,82.50
2022-08-19T02:01:33.590Z,82.50
2022-08-19T02:04:01.695Z,82.70
2022-08-19T02:06:29.764Z,82.70
2022-08-19T02:08:57.418Z,82.70
2022-08-19T02:11:32.279Z,82.80
2022-08-19T02:14:00.952Z,82.80
2022-08-19T02:16:27.750Z,82.90
2022-08-19T02:18:54.506Z,82.90
2022-08-19T02:21:23.168Z,82.90
2022-08-19T02:23:51.315Z,82.90
2022-08-19T02:26:19.135Z,82.90
2022-08-19T02:28:46.114Z,82.90
2022-08-19T02:31:20.535Z,83.00
2022-08-19T02:33:48.241Z,83.10
2022-08-19T02:36:20.680Z,83.10
2022-08-19T02:38:54.412Z,83.20
2022-08-19T02:41:27.009Z,83.20
2022-08-19T02:44:28.859Z,83.30
2022-08-19T02:46:41.987Z,83.30
2022-08-19T02:49:09.212Z,83.20
2022-08-19T02:51:41.407Z,83.20
2022-08-19T02:54:09.184Z,83.30
2022-08-19T02:56:37.578Z,83.30
2022-08-19T02:59:11.925Z,83.20
2022-08-19T03:01:41.487Z,83.10
2022-08-19T03:04:10.668Z,83.00
2022-08-19T03:06:39.266Z,82.90
2022-08-19T03:09:06.074Z,82.90
2022-08-19T03:11:33.931Z,82.90
2022-08-19T03:14:02.851Z,82.90
2022-08-19T03:16:33.573Z,82.90
2022-08-19T03:19:01.275Z,82.90
2022-08-19T03:21:30.659Z,83.00
2022-08-19T03:23:59.702Z,82.90
2022-08-19T03:26:26.677Z,82.80
2022-08-19T03:28:58.326Z,82.90
2022-08-19T03:31:45.077Z,82.90
2022-08-19T03:34:18.609Z,82.80
2022-08-19T03:36:45.753Z,82.90
2022-08-19T03:39:12.534Z,82.90
2022-08-19T03:41:44.540Z,82.90
2022-08-19T03:44:16.769Z,82.80
2022-08-19T03:46:45.505Z,82.90
2022-08-19T03:49:14.401Z,83.00
2022-08-19T03:51:42.755Z,83.00
2022-08-19T03:54:13.763Z,83.00
2022-08-19T03:56:42.316Z,83.00
2022-08-19T03:59:11.692Z,83.10
2022-08-19T04:01:38.644Z,83.20
2022-08-19T04:04:05.970Z,83.30
2022-08-19T04:06:36.185Z,84.00
2022-08-19T04:09:10.395Z,83.30
2022-08-19T04:11:44.496Z,83.30
2022-08-19T04:14:15.065Z,83.30
2022-08-19T04:16:42.173Z,83.30
2022-08-19T04:19:08.910Z,83.30
2022-08-19T04:21:35.813Z,83.40
2022-08-19T04:24:03.897Z,83.40
2022-08-19T04:26:34.828Z,83.30
2022-08-19T04:29:09.199Z,83.30
2022-08-19T04:31:39.822Z,83.30
2022-08-19T04:34:09.335Z,83.40
2022-08-19T04:36:37.822Z,83.50
2022-08-19T04:39:08.514Z,83.50
2022-08-19T04:41:54.062Z,83.50
2022-08-19T04:44:21.358Z,83.50
2022-08-19T04:46:51.188Z,83.50
2022-08-19T04:49:22.760Z,83.60
2022-08-19T04:51:51.177Z,83.70
2022-08-19T04:54:37.673Z,83.70
2022-08-19T04:57:08.445Z,83.70
2022-08-19T04:59:35.901Z,83.80
2022-08-19T05:02:02.773Z,83.70
2022-08-19T05:04:32.698Z,83.70
2022-08-19T05:07:01.210Z,83.70
2022-08-19T05:09:55.716Z,83.90
2022-08-19T05:12:16.527Z,84.00
2022-08-19T05:14:44.167Z,84.10
2022-08-19T05:17:27.151Z,84.10
2022-08-19T05:20:13.713Z,84.20
2022-08-19T05:22:41.439Z,84.30
2022-08-19T05:25:14.864Z,84.40
2022-08-19T05:27:43.078Z,84.40
2022-08-19T05:30:11.804Z,84.60
2022-08-19T05:32:39.878Z,84.70
2022-08-19T05:35:07.405Z,84.70
2022-08-19T05:37:34.153Z,84.80
2022-08-19T05:40:00.893Z,85.00
2022-08-19T05:42:27.634Z,85.00
2022-08-19T05:44:54.900Z,85.10
2022-08-19T05:47:22.207Z,85.20
2022-08-19T05:49:51.065Z,85.30
2022-08-19T05:52:19.037Z,85.40
2022-08-19T05:54:51.422Z,85.50
2022-08-19T05:57:19.503Z,85.70
2022-08-19T05:59:53.204Z,85.80
2022-08-19T06:02:29.207Z,85.90
2022-08-19T06:04:55.978Z,86.10
2022-08-19T06:07:23.120Z,86.30
2022-08-19T06:09:59.160Z,86.50
2022-08-19T06:12:29.641Z,86.70
2022-08-19T06:15:01.251Z,87.00
2022-08-19T06:17:31.211Z,87.10
2022-08-19T06:19:59.452Z,87.30
2022-08-19T06:22:27.016Z,87.60
2022-08-19T06:24:55.036Z,88.00
2022-08-19T06:27:22.964Z,88.20
2022-08-19T06:29:50.065Z,88.40
2022-08-19T06:32:19.535Z,88.60
2022-08-19T06:34:46.515Z,88.70
2022-08-19T06:37:13.359Z,88.70
2022-08-19T06:39:42.001Z,88.90
2022-08-19T06:42:12.307Z,89.00
2022-08-19T06:44:42.811Z,89.10
2022-08-19T06:47:24.008Z,89.60
2022-08-19T06:50:05.409Z,89.30
2022-08-19T06:52:36.415Z,89.60
2022-08-19T06:55:06.251Z,89.90
2022-08-19T06:57:34.479Z,90.00
2022-08-19T07:00:01.528Z,90.10
2022-08-19T07:02:28.217Z,90.10
2022-08-19T07:04:56.701Z,90.20
2022-08-19T07:07:24.555Z,90.10
2022-08-19T07:10:00.060Z,90.10
2022-08-19T07:12:32.311Z,90.10
2022-08-19T07:14:59.429Z,90.00
2022-08-19T07:17:26.897Z,89.80
2022-08-19T07:19:54.464Z,89.70
2022-08-19T07:22:23.845Z,89.60
2022-08-19T07:24:52.035Z,89.40
2022-08-19T07:27:24.411Z,89.30
2022-08-19T07:29:55.719Z,89.20
2022-08-19T07:32:23.161Z,88.90
2022-08-19T07:34:49.893Z,88.80
2022-08-19T07:37:17.324Z,88.80
2022-08-19T07:39:44.133Z,88.70
2022-08-19T07:42:13.484Z,88.50
2022-08-19T07:47:48.734Z,88.10
2022-08-19T07:50:05.487Z,88.00
2022-08-19T07:52:37.192Z,88.00
2022-08-19T07:55:05.682Z,87.80
2022-08-19T07:57:32.426Z,87.80
2022-08-19T07:59:59.856Z,87.70
2022-08-19T08:02:26.648Z,87.70
2022-08-19T08:05:12.042Z,87.80
2022-08-19T08:07:59.023Z,86.80
2022-08-19T08:10:26.566Z,87.20
2022-08-19T08:13:08.764Z,87.10
2022-08-19T08:15:43.169Z,86.60
2022-08-19T08:18:11.927Z,86.40
2022-08-19T08:20:39.630Z,86.30
2022-08-19T08:23:26.598Z,85.90
2022-08-19T08:25:57.876Z,85.90
2022-08-19T08:28:26.292Z,85.90
2022-08-19T08:30:57.127Z,85.60
2022-08-19T08:33:33.657Z,85.60
2022-08-19T08:36:08.648Z,85.30
2022-08-19T08:38:41.301Z,85.20
2022-08-19T08:41:29.395Z,85.00
2022-08-19T08:43:58.226Z,84.90
2022-08-19T08:46:42.832Z,84.90
2022-08-19T08:49:41.355Z,84.30
2022-08-19T08:52:31.941Z,84.10
2022-08-19T08:55:04.228Z,83.50
2022-08-19T08:57:54.496Z,83.40
2022-08-19T09:00:41.278Z,82.60
2022-08-19T09:03:23.413Z,81.90
2022-08-19T09:06:11.851Z,81.40
2022-08-19T09:09:00.559Z,81.20
2022-08-19T09:11:42.411Z,80.70
2022-08-19T09:14:47.392Z,80.50
2022-08-19T09:17:10.671Z,80.10
2022-08-19T09:19:49.461Z,79.90
2022-08-19T09:22:22.885Z,79.60
2022-08-19T09:24:54.172Z,80.00
2022-08-19T09:27:41.768Z,79.00
2022-08-19T09:30:14.712Z,78.70
2022-08-19T09:32:44.485Z,77.30
2022-08-19T09:35:12.086Z,77.80
2022-08-19T09:37:39.297Z,77.50
2022-08-19T09:40:08.224Z,77.30
2022-08-19T09:42:38.778Z,77.30
2022-08-19T09:45:18.932Z,77.60
2022-08-19T09:47:45.700Z,77.50
2022-08-19T09:50:16.476Z,77.60
2022-08-19T09:52:55.409Z,77.60
2022-08-19T09:55:31.639Z,77.60
2022-08-19T09:58:01.890Z,76.80
2022-08-19T10:00:29.003Z,76.40
2022-08-19T10:02:55.725Z,75.50
2022-08-19T10:05:42.480Z,75.00
2022-08-19T10:08:13.838Z,75.70
2022-08-19T10:10:47.191Z,75.10
2022-08-19T10:13:16.633Z,75.10
2022-08-19T10:15:45.234Z,75.40
2022-08-19T10:18:15.586Z,75.20
2022-08-19T10:20:43.285Z,75.10
2022-08-19T10:23:10.554Z,75.00
2022-08-19T10:25:38.411Z,75.30
2022-08-19T10:28:10.693Z,75.50
2022-08-19T10:30:38.343Z,75.10
2022-08-19T10:33:10.804Z,75.00
2022-08-19T10:35:57.120Z,75.10
2022-08-19T10:38:31.547Z,75.30
2022-08-19T10:40:59.320Z,75.70
2022-08-19T10:43:26.114Z,75.70
2022-08-19T10:45:56.956Z,75.20
2022-08-19T10:48:23.708Z,75.20
2022-08-19T10:51:08.905Z,75.20
2022-08-19T10:53:35.624Z,75.00
2022-08-19T10:56:21.361Z,74.70
2022-08-19T10:58:49.333Z,74.60
2022-08-19T11:01:16.142Z,74.60
2022-08-19T11:03:43.029Z,74.50
2022-08-19T11:06:10.011Z,74.30
2022-08-19T11:08:38.727Z,74.20
2022-08-19T11:11:07.543Z,74.10
2022-08-19T11:13:37.710Z,74.40
2022-08-19T11:16:14.831Z,74.40
2022-08-19T11:18:47.794Z,74.50
2022-08-19T11:21:23.241Z,74.50
2022-08-19T11:23:52.096Z,74.50
2022-08-19T11:26:20.219Z,74.20
2022-08-19T11:28:47.766Z,74.60
2022-08-19T11:31:18.704Z,74.00
2022-08-19T11:33:47.700Z,74.20
2022-08-19T11:36:15.364Z,73.70
2022-08-19T11:38:42.655Z,72.80
2022-08-19T11:41:09.513Z,72.60
2022-08-19T11:43:37.631Z,73.10
2022-08-19T11:46:09.402Z,72.60
2022-08-19T11:48:36.495Z,71.90
2022-08-19T11:51:10.478Z,72.00
2022-08-19T11:53:38.414Z,72.00
2022-08-19T11:56:09.027Z,71.80
2022-08-19T11:58:36.368Z,70.90
2022-08-19T12:01:07.760Z,70.70
2022-08-19T12:03:35.151Z,70.70
2022-08-19T12:06:10.525Z,70.70
2022-08-19T12:08:37.421Z,70.30
2022-08-19T12:11:04.177Z,70.40
2022-08-19T12:13:31.465Z,70.50
2022-08-19T12:15:59.319Z,70.30
2022-08-19T12:18:26.186Z,70.40
2022-08-19T12:20:55.567Z,70.20
2022-08-19T12:23:22.256Z,70.20
2022-08-19T12:25:53.106Z,70.50
2022-08-19T12:28:25.010Z,70.10
2022-08-19T12:30:52.280Z,69.90
2022-08-19T12:33:25.542Z,70.00
2022-08-19T12:35:52.868Z,69.40
2022-08-19T12:38:19.566Z,69.30
2022-08-19T12:40:47.859Z,69.70
2022-08-19T12:43:16.585Z,69.50
2022-08-19T12:45:44.564Z,68.90
2022-08-19T12:48:33.615Z,68.70
2022-08-19T12:51:02.839Z,68.10
2022-08-19T12:53:29.955Z,67.80
2022-08-19T12:55:58.302Z,68.10
2022-08-19T12:58:27.313Z,68.00
2022-08-19T13:00:54.521Z,67.70
2022-08-19T13:03:23.320Z,67.50
2022-08-19T13:05:52.027Z,68.10
2022-08-19T13:08:18.786Z,67.50
2022-08-19T13:10:45.551Z,67.40
2022-08-19T13:13:12.409Z,67.40
2022-08-19T13:15:42.287Z,67.60
2022-08-19T13:18:11.284Z,67.70
2022-08-19T13:20:38.556Z,67.90
2022-08-19T13:23:05.668Z,68.10
2022-08-19T13:25:32.494Z,68.40
2022-08-19T13:28:00.005Z,68.70
2022-08-19T13:30:45.324Z,69.00
2022-08-19T13:33:12.040Z,69.30
2022-08-19T13:35:44.926Z,69.80
2022-08-19T13:38:12.253Z,70.20
2022-08-19T13:40:41.251Z,70.30
2022-08-19T13:43:23.104Z,70.50
2022-08-19T13:45:56.970Z,71.00
2022-08-19T13:48:27.237Z,71.70
2022-08-19T13:50:55.132Z,72.30
2022-08-19T13:53:21.873Z,72.60
2022-08-19T13:55:48.673Z,73.10
2022-08-19T13:58:15.523Z,73.70
2022-08-19T14:00:45.437Z,74.10
2022-08-19T14:03:12.384Z,74.90
2022-08-19T14:05:39.530Z,75.50
2022-08-19T14:08:06.371Z,75.90
2022-08-19T14:10:34.223Z,76.60
2022-08-19T14:13:04.314Z,77.20
2022-08-19T14:15:31.304Z,77.70
2022-08-19T14:17:58.554Z,78.20
2022-08-19T14:20:25.873Z,78.40
2022-08-19T14:22:54.523Z,78.60
2022-08-19T14:25:27.453Z,79.80
2022-08-19T14:27:54.760Z,79.20
2022-08-19T14:30:28.526Z,79.20
2022-08-19T14:32:57.393Z,79.20
2022-08-19T14:35:24.585Z,79.30
2022-08-19T14:37:56.257Z,79.70
2022-08-19T14:40:26.863Z,79.90
2022-08-19T14:43:00.438Z,80.10
2022-08-19T14:45:31.605Z,80.40
2022-08-19T14:48:00.925Z,80.50
2022-08-19T14:50:28.410Z,81.00
2022-08-19T14:53:11.865Z,81.20
2022-08-19T14:55:45.137Z,80.80
2022-08-19T14:58:29.804Z,81.20
2022-08-19T15:00:58.403Z,81.30
2022-08-19T15:03:25.159Z,81.30
2022-08-19T15:05:51.892Z,81.30
2022-08-19T15:08:18.651Z,81.50
2022-08-19T15:10:46.796Z,81.60
2022-08-19T15:13:13.494Z,81.50
2022-08-19T15:15:40.490Z,81.70
2022-08-19T15:18:07.162Z,81.50
2022-08-19T15:20:33.913Z,81.60
2022-08-19T15:23:01.276Z,81.40
2022-08-19T15:25:28.674Z,81.70
2022-08-19T15:27:55.761Z,82.00
2022-08-19T15:30:28.018Z,82.00
2022-08-19T15:32:57.195Z,82.50
2022-08-19T15:35:24.562Z,82.60
2022-08-19T15:37:53.047Z,82.30
2022-08-19T15:40:21.110Z,82.40
2022-08-19T15:42:49.725Z,81.70
2022-08-19T15:45:18.909Z,80.80
2022-08-19T15:47:45.846Z,80.20
2022-08-19T15:50:21.189Z,80.20
2022-08-19T15:52:50.657Z,80.10
2022-08-19T15:55:31.316Z,80.10
2022-08-19T15:58:28.435Z,80.10
2022-08-19T16:01:16.436Z,80.50
2022-08-19T16:04:04.250Z,80.90
2022-08-19T16:06:32.605Z,81.30
2022-08-19T16:09:03.992Z,81.10
2022-08-19T16:11:39.390Z,81.10
2022-08-19T16:14:09.426Z,80.50
2022-08-19T16:16:38.348Z,79.20
2022-08-19T16:19:11.820Z,78.30
2022-08-19T16:21:41.905Z,78.20
2022-08-19T16:24:10.510Z,77.90
2022-08-19T16:26:37.248Z,77.80
2022-08-19T16:29:09.052Z,77.70
2022-08-19T16:31:39.868Z,77.60
2022-08-19T16:34:06.965Z,77.40
2022-08-19T16:36:33.845Z,77.60
2022-08-19T16:39:01.245Z,78.10
2022-08-19T16:41:28.743Z,78.40
2022-08-19T16:43:55.763Z,78.60
2022-08-19T16:46:26.898Z,79.20
2022-08-19T16:48:54.451Z,79.60
2022-08-19T16:51:22.778Z,79.90
2022-08-19T16:53:52.596Z,80.20
2022-08-19T16:56:20.115Z,80.50
2022-08-19T16:58:47.695Z,80.80
2022-08-19T17:01:14.781Z,81.10
2022-08-19T17:03:41.650Z,82.30
2022-08-19T17:06:29.651Z,81.70
2022-08-19T17:08:59.485Z,81.90
2022-08-19T17:11:28.589Z,82.10
2022-08-19T17:13:58.429Z,82.30
2022-08-19T17:16:27.670Z,82.60
2022-08-19T17:18:57.322Z,83.10
2022-08-19T17:21:29.852Z,83.30
2022-08-19T17:23:58.032Z,83.60
2022-08-19T17:26:25.615Z,83.90
2022-08-19T17:28:54.116Z,84.10
2022-08-19T17:31:23.641Z,84.20
2022-08-19T17:33:51.110Z,84.20
2022-08-19T17:36:26.328Z,84.20
2022-08-19T17:38:55.398Z,84.40
2022-08-19T17:41:24.132Z,84.50
2022-08-19T17:43:51.481Z,84.60
2022-08-19T17:46:19.533Z,84.70
2022-08-19T17:48:53.115Z,84.70
2022-08-19T17:51:34.962Z,84.70
2022-08-19T17:54:04.326Z,84.90
2022-08-19T17:56:30.984Z,85.00
2022-08-19T17:59:00.659Z,84.80
2022-08-19T18:01:34.703Z,84.20
2022-08-19T18:04:17.186Z,83.50
2022-08-19T18:06:46.554Z,83.40
2022-08-19T18:09:25.075Z,83.30
2022-08-19T18:11:53.801Z,83.50
2022-08-19T18:14:32.110Z,83.40
2022-08-19T18:17:06.301Z,83.60
2022-08-19T18:19:40.986Z,83.60
2022-08-19T18:22:08.534Z,83.60
2022-08-19T18:24:39.346Z,83.70
2022-08-19T18:27:06.988Z,83.90
2022-08-19T18:29:34.137Z,84.10
2022-08-19T18:32:00.812Z,84.30
2022-08-19T18:34:28.316Z,84.40
2022-08-19T18:36:55.134Z,84.50
2022-08-19T18:39:44.139Z,84.70
2022-08-19T18:42:35.147Z,84.90
2022-08-19T18:45:20.977Z,85.10
2022-08-19T18:48:18.443Z,85.20
2022-08-19T18:50:53.336Z,85.30
2022-08-19T18:53:20.095Z,85.50
2022-08-19T18:55:49.406Z,85.60
2022-08-19T18:58:16.129Z,85.60
2022-08-19T19:00:43.948Z,85.70
2022-08-19T19:03:11.618Z,85.80
2022-08-19T19:05:39.823Z,85.90
2022-08-19T19:08:07.412Z,86.00
2022-08-19T19:10:36.152Z,86.00
2022-08-19T19:13:02.964Z,86.00
2022-08-19T19:15:29.646Z,86.10
2022-08-19T19:17:56.585Z,86.20
2022-08-19T19:20:36.500Z,86.40
2022-08-19T19:23:04.155Z,86.60
2022-08-19T19:25:50.130Z,86.70
2022-08-19T19:28:28.015Z,86.60
2022-08-19T19:30:59.767Z,86.60
2022-08-19T19:33:27.550Z,86.50
2022-08-19T19:35:54.350Z,86.40
2022-08-19T19:38:21.089Z,87.30
2022-08-19T19:40:47.813Z,86.40
2022-08-19T19:43:17.107Z,86.40
2022-08-19T19:45:44.375Z,86.30
2022-08-19T19:48:13.462Z,86.30
2022-08-19T19:50:40.264Z,86.10
2022-08-19T19:53:06.985Z,86.20
2022-08-19T19:55:33.685Z,86.20
2022-08-19T19:58:00.394Z,86.30
2022-08-19T20:00:27.120Z,86.30
2022-08-19T20:02:55.841Z,86.40
2022-08-19T20:05:23.095Z,86.40
2022-08-19T20:08:09.597Z,86.50
2022-08-19T20:10:36.934Z,86.40
2022-08-19T20:13:04.492Z,86.60
2022-08-19T20:15:32.200Z,86.70
2022-08-19T20:17:59.923Z,86.80
2022-08-19T20:20:26.942Z,86.90
2022-08-19T20:22:54.018Z,87.00
2022-08-19T20:25:22.203Z,87.00
2022-08-19T20:27:49.707Z,87.10
2022-08-19T20:30:19.836Z,87.20
2022-08-19T20:32:47.001Z,87.20
2022-08-19T20:35:15.852Z,87.20
2022-08-19T20:37:42.961Z,87.30
2022-08-19T20:40:10.593Z,87.30
2022-08-19T20:42:40.461Z,87.40
2022-08-19T20:45:21.594Z,87.40
2022-08-19T20:47:58.922Z,87.60
2022-08-19T20:50:26.258Z,87.60
2022-08-19T20:52:57.118Z,87.60
2022-08-19T20:55:23.829Z,87.60
2022-08-19T20:57:51.564Z,87.60
2022-08-19T21:00:18.901Z,87.70
2022-08-19T21:02:46.839Z,87.60
2022-08-19T21:05:13.818Z,88.60
2022-08-19T21:07:40.792Z,87.80
2022-08-19T21:10:08.113Z,87.80
2022-08-19T21:12:35.437Z,87.70
2022-08-19T21:15:02.325Z,87.80
2022-08-19T21:17:29.003Z,87.70
2022-08-19T21:19:55.749Z,87.80
2022-08-19T21:22:22.465Z,87.80
2022-08-19T21:24:49.130Z,87.90
2022-08-19T21:27:15.874Z,88.00
2022-08-19T21:29:43.017Z,88.00
2022-08-19T21:32:14.375Z,88.00
2022-08-19T21:34:42.734Z,88.10
2022-08-19T21:37:19.926Z,88.10
2022-08-19T21:39:52.849Z,88.10
2022-08-19T21:42:19.965Z,88.10
2022-08-19T21:44:46.622Z,88.20
2022-08-19T21:47:13.494Z,88.20
2022-08-19T21:49:40.174Z,88.20
2022-08-19T21:52:07.227Z,88.20
2022-08-19T21:54:38.002Z,88.30
2022-08-19T21:57:07.017Z,88.30
2022-08-19T21:59:36.955Z,88.20
2022-08-19T22:02:19.025Z,88.20
2022-08-19T22:04:47.069Z,88.20
2022-08-19T22:07:14.635Z,88.20
2022-08-19T22:09:43.401Z,88.30
2022-08-19T22:12:23.201Z,88.30
2022-08-19T22:14:51.739Z,88.30
2022-08-19T22:17:19.682Z,88.20
2022-08-19T22:19:46.664Z,88.20
2022-08-19T22:22:13.564Z,88.20
2022-08-19T22:24:40.330Z,88.20
2022-08-19T22:27:08.671Z,88.20
2022-08-19T22:29:36.503Z,88.20
2022-08-19T22:32:26.360Z,88.20
2022-08-19T22:34:51.768Z,88.20
2022-08-19T22:37:18.799Z,88.30
2022-08-19T22:39:45.770Z,88.30
2022-08-19T22:42:12.745Z,88.40
2022-08-19T22:44:40.409Z,88.40
2022-08-19T22:47:07.105Z,88.50
2022-08-19T22:49:33.810Z,88.40
2022-08-19T22:52:17.622Z,88.50
2022-08-19T22:54:50.882Z,88.50
2022-08-19T22:57:19.576Z,88.50
2022-08-19T22:59:51.212Z,88.50
2022-08-19T23:02:34.469Z,88.50
2022-08-19T23:05:03.561Z,88.60
2022-08-19T23:07:30.343Z,88.50
2022-08-19T23:09:57.079Z,88.50
2022-08-19T23:12:33.090Z,88.60
2022-08-19T23:15:10.572Z,88.60
2022-08-19T23:17:38.053Z,88.60
2022-08-19T23:20:06.437Z,88.60
2022-08-19T23:22:33.397Z,88.60
2022-08-19T23:25:13.054Z,88.60
2022-08-19T23:27:58.372Z,88.70
2022-08-19T23:30:28.070Z,88.70
2022-08-19T23:32:57.226Z,88.70
2022-08-19T23:35:24.889Z,88.80
2022-08-19T23:37:52.211Z,88.80
2022-08-19T23:40:21.555Z,88.80
2022-08-19T23:42:50.082Z,88.80
2022-08-19T23:45:22.922Z,88.80
2022-08-19T23:47:51.158Z,88.80
2022-08-19T23:50:21.061Z,88.80
2022-08-19T23:52:54.219Z,88.80
2022-08-19T23:55:26.885Z,88.80
2022-08-19T23:57:54.409Z,88.80
